East Blacksea — T2ZH3 — position and weather

sailwx.info

Track history (hours):
 
Tides and Currents Weather Stations Pressure Air Temp Water Temp Dewpoint Dewpoint Depression Visibility Wind Speed Wind Dir Waves Ship Positions

East Blacksea

Last reported at 2018-Apr-19 00:23 UTC. Time now 2018-Apr-26 21:15 UTC.
Position N 37°10' W 000°47'.

Length 69 m; draft 3.9 m.

Type: Cargo ship. MMSI: 572341210.

Date/timePositionNaut miles runAvg speedWind from/ knotsBaromVisibWave heightAir tempDewpointWater temp
2018-Apr-19 00:23N 37°10' W 000°47'5 8.3
2018-Apr-18 23:49N 37°14' W 000°45'3 8.4
2018-Apr-18 23:27N 37°17' W 000°43'8 8.1
2018-Apr-18 22:25N 37°25' W 000°39'6 7.6
2018-Apr-18 21:35N 37°31' W 000°36'1 7.5
2018-Apr-18 21:28N 37°32' W 000°36'4 7.7
2018-Apr-18 21:00N 37°35' W 000°34'4 8.1
2018-Apr-18 20:30N 37°38' W 000°31'4 8.1
2018-Apr-18 20:00N 37°42' W 000°28'4 8.0
2018-Apr-18 19:30N 37°45' W 000°26'4 7.9
2018-Apr-18 18:59N 37°48' W 000°23'5 8.0
2018-Apr-18 18:23N 37°52' W 000°20'3 7.8
2018-Apr-18 18:00N 37°55' W 000°17'4 7.9
2018-Apr-18 17:30N 37°58' W 000°15'4 8.2
2018-Apr-18 17:00N 38°02' W 000°12'4 8.1
2018-Apr-18 16:30N 38°05' W 000°09'4 8.0
2018-Apr-18 16:00N 38°08' W 000°06'4 8.2
2018-Apr-18 15:30N 38°12' W 000°03'4 8.3
2018-Apr-18 15:00N 38°15' W 000°00'4 8.3
2018-Apr-18 14:30N 38°19' E 000°02'4 8.0
2018-Apr-18 14:00N 38°22' E 000°05'4 8.1
2018-Apr-18 13:30N 38°25' E 000°08'4 8.2
2018-Apr-18 12:58N 38°29' E 000°11'4 8.2
2018-Apr-18 12:29N 38°33' E 000°13'  
2018-Apr-13 02:18N 36°22' E 013°44'3 7.5
2018-Apr-13 01:51N 36°21' E 013°48'3 8.4
2018-Apr-13 01:30N 36°19' E 013°51'611.7
2018-Apr-13 00:57N 36°16' E 013°58'2 4.8
2018-Apr-13 00:30N 36°15' E 014°00'4 8.8
2018-Apr-13 00:00N 36°13' E 014°05'4 8.2
2018-Apr-12 23:30N 36°11' E 014°10'4 8.6
2018-Apr-12 22:59N 36°09' E 014°15'5 9.3
2018-Apr-12 22:30N 36°07' E 014°19'4 7.6
2018-Apr-12 22:00N 36°04' E 014°23'4 8.5
2018-Apr-12 21:30N 36°01' E 014°26'4 8.3
2018-Apr-12 21:00N 35°58' E 014°30'4 7.7
2018-Apr-12 20:30N 35°55' E 014°32'2 0.1
2018-Apr-12 04:30N 35°53' E 014°31'2 4.3
2018-Apr-12 04:00N 35°55' E 014°33'3 6.3
2018-Apr-12 03:30N 35°56' E 014°36'3 5.1
2018-Apr-12 03:00N 35°58' E 014°38'3 5.3
2018-Apr-12 02:29N 35°59' E 014°41'2 4.0
2018-Apr-12 01:58N 36°01' E 014°43'3 0.3
2018-Apr-11 17:58N 35°58' E 014°43'2 5.2
2018-Apr-11 17:30N 35°58' E 014°40'3 6.0
2018-Apr-11 16:58N 35°57' E 014°36'2 4.6
2018-Apr-11 16:30N 35°58' E 014°33'3 5.2
2018-Apr-11 16:00N 35°59' E 014°31'3 5.5
2018-Apr-11 15:30N 36°01' E 014°28'3 5.2
2018-Apr-11 14:57N 36°03' E 014°25'2 4.7
2018-Apr-11 14:30N 36°04' E 014°23'2 4.9
2018-Apr-11 14:00N 36°06' E 014°21'3 5.3
2018-Apr-11 13:28N 36°07' E 014°18'2 4.9
2018-Apr-11 13:00N 36°09' E 014°16'3 5.9
2018-Apr-11 12:30N 36°10' E 014°13'3 6.4
2018-Apr-11 12:00N 36°11' E 014°09'3 5.3
2018-Apr-11 11:30N 36°12' E 014°06'3 5.4
2018-Apr-11 11:00N 36°13' E 014°03'3 5.3
2018-Apr-11 10:29N 36°14' E 013°60'3 6.3
2018-Apr-11 10:00N 36°15' E 013°56'3 6.7
2018-Apr-11 09:30N 36°16' E 013°52'3 5.0
2018-Apr-11 08:59N 36°17' E 013°49'4 8.2
2018-Apr-11 08:30N 36°19' E 013°45'1 2.5
2018-Apr-11 08:00N 36°19' E 013°43'2 4.9
2018-Apr-11 07:30N 36°21' E 013°41'2 4.9
2018-Apr-11 07:00N 36°22' E 013°38'3 5.6
2018-Apr-11 06:30N 36°23' E 013°35'9 4.5
2018-Apr-11 04:27N 36°27' E 013°24'  
Track history (hours):
 
Tides and Currents Weather Stations Pressure Air Temp Water Temp Dewpoint Dewpoint Depression Visibility Wind Speed Wind Dir Waves Ship Positions

East Blacksea

Last reported at 2018-Apr-19 00:23 UTC. Time now 2018-Apr-26 21:15 UTC.
Position N 37°10' W 000°47'.

Length 69 m; draft 3.9 m.

Type: Cargo ship. MMSI: 572341210.

Date/timePositionNaut miles runAvg speedWind from/ knotsBaromVisibWave heightAir tempDewpointWater temp
2018-Apr-19 00:23N 37°10' W 000°47'5 8.3
2018-Apr-18 23:49N 37°14' W 000°45'3 8.4
2018-Apr-18 23:27N 37°17' W 000°43'8 8.1
2018-Apr-18 22:25N 37°25' W 000°39'6 7.6
2018-Apr-18 21:35N 37°31' W 000°36'1 7.5
2018-Apr-18 21:28N 37°32' W 000°36'4 7.7
2018-Apr-18 21:00N 37°35' W 000°34'4 8.1
2018-Apr-18 20:30N 37°38' W 000°31'4 8.1
2018-Apr-18 20:00N 37°42' W 000°28'4 8.0
2018-Apr-18 19:30N 37°45' W 000°26'4 7.9
2018-Apr-18 18:59N 37°48' W 000°23'5 8.0
2018-Apr-18 18:23N 37°52' W 000°20'3 7.8
2018-Apr-18 18:00N 37°55' W 000°17'4 7.9
2018-Apr-18 17:30N 37°58' W 000°15'4 8.2
2018-Apr-18 17:00N 38°02' W 000°12'4 8.1
2018-Apr-18 16:30N 38°05' W 000°09'4 8.0
2018-Apr-18 16:00N 38°08' W 000°06'4 8.2
2018-Apr-18 15:30N 38°12' W 000°03'4 8.3
2018-Apr-18 15:00N 38°15' W 000°00'4 8.3
2018-Apr-18 14:30N 38°19' E 000°02'4 8.0
2018-Apr-18 14:00N 38°22' E 000°05'4 8.1
2018-Apr-18 13:30N 38°25' E 000°08'4 8.2
2018-Apr-18 12:58N 38°29' E 000°11'4 8.2
2018-Apr-18 12:29N 38°33' E 000°13'  
2018-Apr-13 02:18N 36°22' E 013°44'3 7.5
2018-Apr-13 01:51N 36°21' E 013°48'3 8.4
2018-Apr-13 01:30N 36°19' E 013°51'611.7
2018-Apr-13 00:57N 36°16' E 013°58'2 4.8
2018-Apr-13 00:30N 36°15' E 014°00'4 8.8
2018-Apr-13 00:00N 36°13' E 014°05'4 8.2
2018-Apr-12 23:30N 36°11' E 014°10'4 8.6
2018-Apr-12 22:59N 36°09' E 014°15'5 9.3
2018-Apr-12 22:30N 36°07' E 014°19'4 7.6
2018-Apr-12 22:00N 36°04' E 014°23'4 8.5
2018-Apr-12 21:30N 36°01' E 014°26'4 8.3
2018-Apr-12 21:00N 35°58' E 014°30'4 7.7
2018-Apr-12 20:30N 35°55' E 014°32'2 0.1
2018-Apr-12 04:30N 35°53' E 014°31'2 4.3
2018-Apr-12 04:00N 35°55' E 014°33'3 6.3
2018-Apr-12 03:30N 35°56' E 014°36'3 5.1
2018-Apr-12 03:00N 35°58' E 014°38'3 5.3
2018-Apr-12 02:29N 35°59' E 014°41'2 4.0
2018-Apr-12 01:58N 36°01' E 014°43'3 0.3
2018-Apr-11 17:58N 35°58' E 014°43'2 5.2
2018-Apr-11 17:30N 35°58' E 014°40'3 6.0
2018-Apr-11 16:58N 35°57' E 014°36'2 4.6
2018-Apr-11 16:30N 35°58' E 014°33'3 5.2
2018-Apr-11 16:00N 35°59' E 014°31'3 5.5
2018-Apr-11 15:30N 36°01' E 014°28'3 5.2
2018-Apr-11 14:57N 36°03' E 014°25'2 4.7
2018-Apr-11 14:30N 36°04' E 014°23'2 4.9
2018-Apr-11 14:00N 36°06' E 014°21'3 5.3
2018-Apr-11 13:28N 36°07' E 014°18'2 4.9
2018-Apr-11 13:00N 36°09' E 014°16'3 5.9
2018-Apr-11 12:30N 36°10' E 014°13'3 6.4
2018-Apr-11 12:00N 36°11' E 014°09'3 5.3
2018-Apr-11 11:30N 36°12' E 014°06'3 5.4
2018-Apr-11 11:00N 36°13' E 014°03'3 5.3
2018-Apr-11 10:29N 36°14' E 013°60'3 6.3
2018-Apr-11 10:00N 36°15' E 013°56'3 6.7
2018-Apr-11 09:30N 36°16' E 013°52'3 5.0
2018-Apr-11 08:59N 36°17' E 013°49'4 8.2
2018-Apr-11 08:30N 36°19' E 013°45'1 2.5
2018-Apr-11 08:00N 36°19' E 013°43'2 4.9
2018-Apr-11 07:30N 36°21' E 013°41'2 4.9
2018-Apr-11 07:00N 36°22' E 013°38'3 5.6
2018-Apr-11 06:30N 36°23' E 013°35'9 4.5
2018-Apr-11 04:27N 36°27' E 013°24'  

Dump ship's entire track history